sensor_id;sensor_type;location;lat;lon;timestamp;P1;durP1;ratioP1;P2;durP2;ratioP2
75772;SDS011;64381;0.000;0.000;2023-03-24T00:02:24;14.73;;;9.63;;
75772;SDS011;64381;0.000;0.000;2023-03-24T00:04:49;11.00;;;8.60;;
75772;SDS011;64381;0.000;0.000;2023-03-24T00:07:15;12.20;;;9.00;;
75772;SDS011;64381;0.000;0.000;2023-03-24T00:09:41;13.55;;;9.35;;
75772;SDS011;64381;0.000;0.000;2023-03-24T00:12:08;13.70;;;9.50;;
75772;SDS011;64381;0.000;0.000;2023-03-24T00:14:35;12.05;;;8.60;;
75772;SDS011;64381;0.000;0.000;2023-03-24T00:17:01;11.57;;;8.57;;
75772;SDS011;64381;0.000;0.000;2023-03-24T00:19:26;13.83;;;8.20;;
75772;SDS011;64381;0.000;0.000;2023-03-24T00:21:51;11.13;;;8.47;;
75772;SDS011;64381;0.000;0.000;2023-03-24T00:24:16;12.77;;;8.30;;
75772;SDS011;64381;0.000;0.000;2023-03-24T00:26:42;13.53;;;9.07;;
75772;SDS011;64381;0.000;0.000;2023-03-24T00:29:08;12.43;;;8.50;;
75772;SDS011;64381;0.000;0.000;2023-03-24T00:31:34;13.40;;;7.97;;
75772;SDS011;64381;0.000;0.000;2023-03-24T00:33:59;11.60;;;8.27;;
75772;SDS011;64381;0.000;0.000;2023-03-24T00:36:25;11.20;;;8.10;;
75772;SDS011;64381;0.000;0.000;2023-03-24T00:38:51;10.77;;;7.63;;
75772;SDS011;64381;0.000;0.000;2023-03-24T00:41:17;10.67;;;7.90;;
75772;SDS011;64381;0.000;0.000;2023-03-24T00:43:43;11.02;;;8.10;;
75772;SDS011;64381;0.000;0.000;2023-03-24T00:46:13;11.27;;;8.05;;
75772;SDS011;64381;0.000;0.000;2023-03-24T00:48:39;11.68;;;8.20;;
75772;SDS011;64381;0.000;0.000;2023-03-24T00:51:05;10.90;;;8.33;;
75772;SDS011;64381;0.000;0.000;2023-03-24T00:53:30;11.17;;;8.03;;
75772;SDS011;64381;0.000;0.000;2023-03-24T00:55:56;10.77;;;7.87;;
75772;SDS011;64381;0.000;0.000;2023-03-24T00:58:22;11.63;;;8.10;;
75772;SDS011;64381;0.000;0.000;2023-03-24T01:00:50;12.95;;;8.40;;
75772;SDS011;64381;0.000;0.000;2023-03-24T01:03:17;12.70;;;7.70;;
75772;SDS011;64381;0.000;0.000;2023-03-24T01:05:43;11.60;;;7.97;;
75772;SDS011;64381;0.000;0.000;2023-03-24T01:08:08;11.02;;;7.80;;
75772;SDS011;64381;0.000;0.000;2023-03-24T01:10:35;10.43;;;7.20;;
75772;SDS011;64381;0.000;0.000;2023-03-24T01:13:02;10.67;;;7.37;;
75772;SDS011;64381;0.000;0.000;2023-03-24T01:15:29;11.23;;;7.60;;
75772;SDS011;64381;0.000;0.000;2023-03-24T01:17:56;10.88;;;7.50;;
75772;SDS011;64381;0.000;0.000;2023-03-24T01:20:22;10.87;;;7.50;;
75772;SDS011;64381;0.000;0.000;2023-03-24T01:22:48;10.30;;;7.63;;
75772;SDS011;64381;0.000;0.000;2023-03-24T01:25:15;10.55;;;7.55;;
75772;SDS011;64381;0.000;0.000;2023-03-24T01:27:43;10.77;;;7.28;;
75772;SDS011;64381;0.000;0.000;2023-03-24T01:30:10;11.40;;;7.38;;
75772;SDS011;64381;0.000;0.000;2023-03-24T01:32:37;11.73;;;7.97;;
75772;SDS011;64381;0.000;0.000;2023-03-24T01:35:03;11.63;;;7.67;;
75772;SDS011;64381;0.000;0.000;2023-03-24T01:37:29;10.70;;;7.82;;
75772;SDS011;64381;0.000;0.000;2023-03-24T01:39:54;9.93;;;7.90;;
75772;SDS011;64381;0.000;0.000;2023-03-24T01:42:20;10.70;;;7.70;;
75772;SDS011;64381;0.000;0.000;2023-03-24T01:44:48;11.45;;;7.35;;
75772;SDS011;64381;0.000;0.000;2023-03-24T01:47:14;11.50;;;7.40;;
75772;SDS011;64381;0.000;0.000;2023-03-24T01:50:00;10.70;;;7.23;;
75772;SDS011;64381;0.000;0.000;2023-03-24T01:52:27;11.07;;;7.50;;
75772;SDS011;64381;0.000;0.000;2023-03-24T01:54:57;9.88;;;7.47;;
75772;SDS011;64381;0.000;0.000;2023-03-24T01:57:30;9.65;;;7.53;;
75772;SDS011;64381;0.000;0.000;2023-03-24T01:59:59;10.60;;;7.07;;
75772;SDS011;64381;0.000;0.000;2023-03-24T02:02:26;10.48;;;6.90;;
75772;SDS011;64381;0.000;0.000;2023-03-24T02:04:53;10.20;;;6.87;;
75772;SDS011;64381;0.000;0.000;2023-03-24T02:07:28;10.57;;;7.00;;
75772;SDS011;64381;0.000;0.000;2023-03-24T02:09:56;10.50;;;7.28;;
75772;SDS011;64381;0.000;0.000;2023-03-24T02:12:21;9.53;;;6.67;;
75772;SDS011;64381;0.000;0.000;2023-03-24T02:14:47;9.97;;;7.50;;
75772;SDS011;64381;0.000;0.000;2023-03-24T02:28:48;11.27;;;6.97;;
75772;SDS011;64381;0.000;0.000;2023-03-24T02:42:22;10.48;;;6.90;;
75772;SDS011;64381;0.000;0.000;2023-03-24T02:47:43;11.82;;;7.03;;
75772;SDS011;64381;0.000;0.000;2023-03-24T02:56:09;9.48;;;7.03;;
75772;SDS011;64381;0.000;0.000;2023-03-24T02:58:41;10.60;;;6.70;;
75772;SDS011;64381;0.000;0.000;2023-03-24T03:01:29;9.80;;;6.60;;
75772;SDS011;64381;0.000;0.000;2023-03-24T03:04:00;9.07;;;6.50;;
75772;SDS011;64381;0.000;0.000;2023-03-24T03:06:32;9.18;;;6.40;;
75772;SDS011;64381;0.000;0.000;2023-03-24T03:09:00;9.38;;;6.57;;
75772;SDS011;64381;0.000;0.000;2023-03-24T03:11:29;8.45;;;6.10;;
75772;SDS011;64381;0.000;0.000;2023-03-24T03:13:56;9.00;;;6.60;;
75772;SDS011;64381;0.000;0.000;2023-03-24T03:19:10;9.15;;;6.68;;
75772;SDS011;64381;0.000;0.000;2023-03-24T03:21:40;9.43;;;6.17;;
75772;SDS011;64381;0.000;0.000;2023-03-24T03:24:09;8.90;;;6.38;;
75772;SDS011;64381;0.000;0.000;2023-03-24T03:26:36;9.57;;;6.65;;
75772;SDS011;64381;0.000;0.000;2023-03-24T03:29:07;8.90;;;6.00;;
75772;SDS011;64381;0.000;0.000;2023-03-24T03:31:41;8.73;;;6.25;;
75772;SDS011;64381;0.000;0.000;2023-03-24T03:36:53;8.73;;;6.30;;
75772;SDS011;64381;0.000;0.000;2023-03-24T03:39:42;8.90;;;6.00;;
75772;SDS011;64381;0.000;0.000;2023-03-24T03:42:13;8.95;;;6.22;;
75772;SDS011;64381;0.000;0.000;2023-03-24T03:44:38;9.33;;;6.10;;
75772;SDS011;64381;0.000;0.000;2023-03-24T03:47:04;9.73;;;6.27;;
75772;SDS011;64381;0.000;0.000;2023-03-24T03:49:29;8.67;;;6.20;;
75772;SDS011;64381;0.000;0.000;2023-03-24T03:51:55;8.30;;;6.30;;
75772;SDS011;64381;0.000;0.000;2023-03-24T03:54:20;7.80;;;6.10;;
75772;SDS011;64381;0.000;0.000;2023-03-24T03:56:47;8.93;;;6.20;;
75772;SDS011;64381;0.000;0.000;2023-03-24T03:59:26;7.47;;;5.63;;
75772;SDS011;64381;0.000;0.000;2023-03-24T04:01:56;9.40;;;6.15;;
75772;SDS011;64381;0.000;0.000;2023-03-24T04:10:22;8.65;;;6.03;;
75772;SDS011;64381;0.000;0.000;2023-03-24T04:13:04;9.30;;;5.80;;
75772;SDS011;64381;0.000;0.000;2023-03-24T04:15:44;7.93;;;5.97;;
75772;SDS011;64381;0.000;0.000;2023-03-24T04:21:54;8.57;;;6.07;;
75772;SDS011;64381;0.000;0.000;2023-03-24T04:26:47;8.25;;;5.50;;
75772;SDS011;64381;0.000;0.000;2023-03-24T04:35:10;7.68;;;5.53;;
75772;SDS011;64381;0.000;0.000;2023-03-24T04:37:41;7.43;;;5.50;;
75772;SDS011;64381;0.000;0.000;2023-03-24T04:40:08;8.13;;;5.50;;
75772;SDS011;64381;0.000;0.000;2023-03-24T04:42:43;8.35;;;5.70;;
75772;SDS011;64381;0.000;0.000;2023-03-24T04:45:11;7.50;;;5.03;;
75772;SDS011;64381;0.000;0.000;2023-03-24T04:47:47;6.75;;;5.28;;
75772;SDS011;64381;0.000;0.000;2023-03-24T04:50:26;7.78;;;5.55;;
75772;SDS011;64381;0.000;0.000;2023-03-24T04:52:52;8.23;;;5.30;;
75772;SDS011;64381;0.000;0.000;2023-03-24T04:55:43;8.13;;;5.60;;
75772;SDS011;64381;0.000;0.000;2023-03-24T04:58:18;8.02;;;5.55;;
75772;SDS011;64381;0.000;0.000;2023-03-24T05:00:45;8.80;;;6.00;;
75772;SDS011;64381;0.000;0.000;2023-03-24T05:03:11;7.07;;;5.50;;
75772;SDS011;64381;0.000;0.000;2023-03-24T05:05:37;7.38;;;5.05;;
75772;SDS011;64381;0.000;0.000;2023-03-24T05:08:02;7.70;;;5.50;;
75772;SDS011;64381;0.000;0.000;2023-03-24T05:10:27;7.53;;;5.27;;
75772;SDS011;64381;0.000;0.000;2023-03-24T05:12:53;8.40;;;5.30;;
75772;SDS011;64381;0.000;0.000;2023-03-24T05:15:18;7.50;;;5.30;;
75772;SDS011;64381;0.000;0.000;2023-03-24T05:17:43;6.63;;;5.30;;
75772;SDS011;64381;0.000;0.000;2023-03-24T05:20:08;7.43;;;5.10;;
75772;SDS011;64381;0.000;0.000;2023-03-24T05:22:34;7.32;;;5.40;;
75772;SDS011;64381;0.000;0.000;2023-03-24T05:24:59;7.90;;;5.40;;
75772;SDS011;64381;0.000;0.000;2023-03-24T05:27:24;7.47;;;5.60;;
75772;SDS011;64381;0.000;0.000;2023-03-24T05:29:49;8.03;;;5.80;;
75772;SDS011;64381;0.000;0.000;2023-03-24T05:32:15;8.07;;;5.60;;
75772;SDS011;64381;0.000;0.000;2023-03-24T05:34:40;7.47;;;5.03;;
75772;SDS011;64381;0.000;0.000;2023-03-24T05:37:05;7.70;;;5.27;;
75772;SDS011;64381;0.000;0.000;2023-03-24T05:39:30;7.50;;;5.10;;
75772;SDS011;64381;0.000;0.000;2023-03-24T05:41:56;7.37;;;5.20;;
75772;SDS011;64381;0.000;0.000;2023-03-24T05:44:21;7.97;;;5.60;;
75772;SDS011;64381;0.000;0.000;2023-03-24T05:46:46;7.13;;;5.07;;
75772;SDS011;64381;0.000;0.000;2023-03-24T05:49:11;7.00;;;5.30;;
75772;SDS011;64381;0.000;0.000;2023-03-24T05:51:36;7.67;;;5.43;;
75772;SDS011;64381;0.000;0.000;2023-03-24T05:54:02;7.87;;;5.60;;
75772;SDS011;64381;0.000;0.000;2023-03-24T05:56:27;6.60;;;5.10;;
75772;SDS011;64381;0.000;0.000;2023-03-24T05:58:52;7.90;;;5.40;;
75772;SDS011;64381;0.000;0.000;2023-03-24T06:01:17;7.83;;;5.43;;
75772;SDS011;64381;0.000;0.000;2023-03-24T06:03:43;6.93;;;5.07;;
75772;SDS011;64381;0.000;0.000;2023-03-24T06:06:08;7.60;;;4.90;;
75772;SDS011;64381;0.000;0.000;2023-03-24T06:08:34;6.57;;;4.90;;
75772;SDS011;64381;0.000;0.000;2023-03-24T06:11:02;7.33;;;5.10;;
75772;SDS011;64381;0.000;0.000;2023-03-24T06:13:29;7.68;;;5.38;;
75772;SDS011;64381;0.000;0.000;2023-03-24T06:15:54;6.80;;;4.93;;
75772;SDS011;64381;0.000;0.000;2023-03-24T06:18:20;7.37;;;5.20;;
75772;SDS011;64381;0.000;0.000;2023-03-24T06:20:45;6.60;;;4.87;;
75772;SDS011;64381;0.000;0.000;2023-03-24T06:23:10;6.30;;;4.90;;
75772;SDS011;64381;0.000;0.000;2023-03-24T06:25:35;8.07;;;5.20;;
75772;SDS011;64381;0.000;0.000;2023-03-24T06:28:00;6.40;;;4.83;;
75772;SDS011;64381;0.000;0.000;2023-03-24T06:30:26;7.60;;;5.13;;
75772;SDS011;64381;0.000;0.000;2023-03-24T06:32:51;6.80;;;5.30;;
75772;SDS011;64381;0.000;0.000;2023-03-24T06:35:17;7.10;;;5.15;;
75772;SDS011;64381;0.000;0.000;2023-03-24T06:37:42;6.43;;;4.80;;
75772;SDS011;64381;0.000;0.000;2023-03-24T06:40:08;7.30;;;4.80;;
75772;SDS011;64381;0.000;0.000;2023-03-24T06:42:34;7.00;;;4.90;;
75772;SDS011;64381;0.000;0.000;2023-03-24T06:44:59;8.20;;;5.00;;
75772;SDS011;64381;0.000;0.000;2023-03-24T06:47:24;6.83;;;4.87;;
75772;SDS011;64381;0.000;0.000;2023-03-24T06:49:49;8.20;;;5.20;;
75772;SDS011;64381;0.000;0.000;2023-03-24T06:52:15;7.47;;;5.00;;
75772;SDS011;64381;0.000;0.000;2023-03-24T06:54:40;7.33;;;4.97;;
75772;SDS011;64381;0.000;0.000;2023-03-24T06:57:05;6.97;;;5.17;;
75772;SDS011;64381;0.000;0.000;2023-03-24T06:59:30;7.00;;;4.70;;
75772;SDS011;64381;0.000;0.000;2023-03-24T07:01:55;6.80;;;4.80;;
75772;SDS011;64381;0.000;0.000;2023-03-24T07:04:21;7.63;;;4.97;;
75772;SDS011;64381;0.000;0.000;2023-03-24T07:06:46;6.77;;;4.80;;
75772;SDS011;64381;0.000;0.000;2023-03-24T07:09:11;6.57;;;5.00;;
75772;SDS011;64381;0.000;0.000;2023-03-24T07:11:37;6.82;;;4.47;;
75772;SDS011;64381;0.000;0.000;2023-03-24T07:14:03;6.13;;;4.50;;
75772;SDS011;64381;0.000;0.000;2023-03-24T07:16:28;7.10;;;4.83;;
75772;SDS011;64381;0.000;0.000;2023-03-24T07:18:53;6.87;;;4.80;;
75772;SDS011;64381;0.000;0.000;2023-03-24T07:21:18;6.17;;;4.70;;
75772;SDS011;64381;0.000;0.000;2023-03-24T07:23:44;7.90;;;5.20;;
75772;SDS011;64381;0.000;0.000;2023-03-24T07:26:09;6.40;;;4.67;;
75772;SDS011;64381;0.000;0.000;2023-03-24T07:28:34;6.40;;;4.53;;
75772;SDS011;64381;0.000;0.000;2023-03-24T07:31:02;6.13;;;4.50;;
75772;SDS011;64381;0.000;0.000;2023-03-24T07:33:29;6.88;;;4.72;;
75772;SDS011;64381;0.000;0.000;2023-03-24T07:35:55;6.72;;;4.55;;
75772;SDS011;64381;0.000;0.000;2023-03-24T07:38:21;5.87;;;4.10;;
75772;SDS011;64381;0.000;0.000;2023-03-24T07:40:46;7.03;;;4.80;;
75772;SDS011;64381;0.000;0.000;2023-03-24T07:43:11;6.57;;;4.43;;
75772;SDS011;64381;0.000;0.000;2023-03-24T07:45:36;6.63;;;4.60;;
75772;SDS011;64381;0.000;0.000;2023-03-24T07:48:02;6.17;;;4.20;;
75772;SDS011;64381;0.000;0.000;2023-03-24T07:50:27;5.80;;;4.30;;
75772;SDS011;64381;0.000;0.000;2023-03-24T07:52:53;6.13;;;4.17;;
75772;SDS011;64381;0.000;0.000;2023-03-24T07:55:19;6.67;;;4.40;;
75772;SDS011;64381;0.000;0.000;2023-03-24T07:57:45;6.47;;;4.65;;
75772;SDS011;64381;0.000;0.000;2023-03-24T08:00:12;5.82;;;4.20;;
75772;SDS011;64381;0.000;0.000;2023-03-24T08:02:38;7.43;;;4.28;;
75772;SDS011;64381;0.000;0.000;2023-03-24T08:05:04;6.67;;;4.60;;
75772;SDS011;64381;0.000;0.000;2023-03-24T08:07:29;6.97;;;4.50;;
75772;SDS011;64381;0.000;0.000;2023-03-24T08:09:54;6.80;;;4.70;;
75772;SDS011;64381;0.000;0.000;2023-03-24T08:12:19;6.63;;;4.60;;
75772;SDS011;64381;0.000;0.000;2023-03-24T08:14:45;7.03;;;4.90;;
75772;SDS011;64381;0.000;0.000;2023-03-24T08:17:10;6.43;;;4.30;;
75772;SDS011;64381;0.000;0.000;2023-03-24T08:19:35;5.93;;;4.20;;
75772;SDS011;64381;0.000;0.000;2023-03-24T08:22:00;6.77;;;4.40;;
75772;SDS011;64381;0.000;0.000;2023-03-24T08:24:25;7.20;;;4.30;;
75772;SDS011;64381;0.000;0.000;2023-03-24T08:26:51;6.33;;;4.20;;
75772;SDS011;64381;0.000;0.000;2023-03-24T08:29:16;6.57;;;4.50;;
75772;SDS011;64381;0.000;0.000;2023-03-24T08:31:41;6.40;;;4.33;;
75772;SDS011;64381;0.000;0.000;2023-03-24T08:34:08;6.30;;;4.50;;
75772;SDS011;64381;0.000;0.000;2023-03-24T08:36:33;6.63;;;4.25;;
75772;SDS011;64381;0.000;0.000;2023-03-24T08:38:58;6.30;;;4.17;;
75772;SDS011;64381;0.000;0.000;2023-03-24T08:41:23;5.47;;;4.00;;
75772;SDS011;64381;0.000;0.000;2023-03-24T08:43:49;7.50;;;4.50;;
75772;SDS011;64381;0.000;0.000;2023-03-24T08:46:14;6.83;;;4.40;;
75772;SDS011;64381;0.000;0.000;2023-03-24T08:48:39;5.73;;;4.10;;
75772;SDS011;64381;0.000;0.000;2023-03-24T08:51:08;5.70;;;4.27;;
75772;SDS011;64381;0.000;0.000;2023-03-24T08:53:35;6.00;;;3.88;;
75772;SDS011;64381;0.000;0.000;2023-03-24T08:56:00;5.90;;;4.17;;
75772;SDS011;64381;0.000;0.000;2023-03-24T08:58:25;5.60;;;4.30;;
75772;SDS011;64381;0.000;0.000;2023-03-24T09:00:51;6.87;;;4.43;;
75772;SDS011;64381;0.000;0.000;2023-03-24T09:03:16;7.30;;;4.20;;
75772;SDS011;64381;0.000;0.000;2023-03-24T09:05:43;5.57;;;4.15;;
75772;SDS011;64381;0.000;0.000;2023-03-24T09:08:09;6.45;;;4.22;;
75772;SDS011;64381;0.000;0.000;2023-03-24T09:10:35;6.28;;;4.30;;
75772;SDS011;64381;0.000;0.000;2023-03-24T09:13:00;6.67;;;4.17;;
75772;SDS011;64381;0.000;0.000;2023-03-24T09:15:25;5.60;;;4.00;;
75772;SDS011;64381;0.000;0.000;2023-03-24T09:17:50;5.70;;;4.30;;
75772;SDS011;64381;0.000;0.000;2023-03-24T09:20:16;5.97;;;4.00;;
75772;SDS011;64381;0.000;0.000;2023-03-24T09:22:42;7.47;;;4.03;;
75772;SDS011;64381;0.000;0.000;2023-03-24T09:25:10;5.78;;;4.10;;
75772;SDS011;64381;0.000;0.000;2023-03-24T09:27:37;6.20;;;4.05;;
75772;SDS011;64381;0.000;0.000;2023-03-24T09:30:02;6.87;;;3.90;;
75772;SDS011;64381;0.000;0.000;2023-03-24T09:32:28;6.25;;;4.55;;
75772;SDS011;64381;0.000;0.000;2023-03-24T09:34:54;6.33;;;4.13;;
75772;SDS011;64381;0.000;0.000;2023-03-24T09:37:19;5.57;;;3.63;;
75772;SDS011;64381;0.000;0.000;2023-03-24T09:39:44;6.03;;;4.20;;
75772;SDS011;64381;0.000;0.000;2023-03-24T09:42:19;6.43;;;4.00;;
75772;SDS011;64381;0.000;0.000;2023-03-24T09:44:47;5.63;;;3.78;;
75772;SDS011;64381;0.000;0.000;2023-03-24T09:52:49;6.20;;;4.15;;
75772;SDS011;64381;0.000;0.000;2023-03-24T09:55:19;6.03;;;4.10;;
75772;SDS011;64381;0.000;0.000;2023-03-24T09:57:48;6.00;;;4.15;;
75772;SDS011;64381;0.000;0.000;2023-03-24T10:00:22;5.80;;;3.92;;
75772;SDS011;64381;0.000;0.000;2023-03-24T10:02:49;6.18;;;4.10;;
75772;SDS011;64381;0.000;0.000;2023-03-24T10:05:25;6.85;;;4.10;;
75772;SDS011;64381;0.000;0.000;2023-03-24T10:07:59;5.83;;;3.87;;
75772;SDS011;64381;0.000;0.000;2023-03-24T10:13:43;6.20;;;4.00;;
75772;SDS011;64381;0.000;0.000;2023-03-24T10:16:35;5.30;;;3.50;;
75772;SDS011;64381;0.000;0.000;2023-03-24T10:19:23;5.38;;;3.70;;
75772;SDS011;64381;0.000;0.000;2023-03-24T10:22:02;6.23;;;3.97;;
75772;SDS011;64381;0.000;0.000;2023-03-24T10:27:34;5.00;;;3.80;;
75772;SDS011;64381;0.000;0.000;2023-03-24T10:30:13;5.18;;;3.60;;
75772;SDS011;64381;0.000;0.000;2023-03-24T10:32:41;6.57;;;3.72;;
75772;SDS011;64381;0.000;0.000;2023-03-24T10:35:13;5.50;;;3.90;;
75772;SDS011;64381;0.000;0.000;2023-03-24T10:37:41;6.05;;;3.80;;
75772;SDS011;64381;0.000;0.000;2023-03-24T10:40:14;5.93;;;4.10;;
75772;SDS011;64381;0.000;0.000;2023-03-24T10:42:41;5.97;;;3.58;;
75772;SDS011;64381;0.000;0.000;2023-03-24T10:45:10;5.25;;;3.90;;
75772;SDS011;64381;0.000;0.000;2023-03-24T10:47:37;5.70;;;3.90;;
75772;SDS011;64381;0.000;0.000;2023-03-24T10:50:06;6.22;;;3.95;;
75772;SDS011;64381;0.000;0.000;2023-03-24T10:52:40;6.78;;;4.07;;
75772;SDS011;64381;0.000;0.000;2023-03-24T10:55:12;5.53;;;3.80;;
75772;SDS011;64381;0.000;0.000;2023-03-24T10:57:41;5.50;;;3.65;;
75772;SDS011;64381;0.000;0.000;2023-03-24T11:00:09;5.70;;;3.90;;
75772;SDS011;64381;0.000;0.000;2023-03-24T11:02:43;6.05;;;3.90;;
75772;SDS011;64381;0.000;0.000;2023-03-24T11:07:34;6.63;;;3.80;;
75772;SDS011;64381;0.000;0.000;2023-03-24T11:10:23;6.20;;;3.83;;
75772;SDS011;64381;0.000;0.000;2023-03-24T11:17:54;5.32;;;3.60;;
75772;SDS011;64381;0.000;0.000;2023-03-24T11:20:34;6.35;;;3.85;;
75772;SDS011;64381;0.000;0.000;2023-03-24T11:23:00;5.32;;;3.72;;
75772;SDS011;64381;0.000;0.000;2023-03-24T11:25:36;5.53;;;3.40;;
75772;SDS011;64381;0.000;0.000;2023-03-24T11:28:17;5.60;;;3.63;;
75772;SDS011;64381;0.000;0.000;2023-03-24T11:30:51;5.28;;;3.70;;
75772;SDS011;64381;0.000;0.000;2023-03-24T11:33:40;5.60;;;3.70;;
75772;SDS011;64381;0.000;0.000;2023-03-24T11:36:53;5.10;;;3.50;;
75772;SDS011;64381;0.000;0.000;2023-03-24T11:38:57;5.45;;;3.60;;
75772;SDS011;64381;0.000;0.000;2023-03-24T11:41:32;5.60;;;3.63;;
75772;SDS011;64381;0.000;0.000;2023-03-24T11:44:20;4.88;;;3.55;;
75772;SDS011;64381;0.000;0.000;2023-03-24T11:46:54;5.15;;;3.50;;
75772;SDS011;64381;0.000;0.000;2023-03-24T11:49:29;5.70;;;3.72;;
75772;SDS011;64381;0.000;0.000;2023-03-24T11:51:55;5.75;;;3.72;;
75772;SDS011;64381;0.000;0.000;2023-03-24T11:54:22;5.47;;;3.60;;
75772;SDS011;64381;0.000;0.000;2023-03-24T11:56:53;4.77;;;3.17;;
75772;SDS011;64381;0.000;0.000;2023-03-24T11:59:25;5.10;;;3.50;;
75772;SDS011;64381;0.000;0.000;2023-03-24T12:01:54;5.07;;;3.47;;
75772;SDS011;64381;0.000;0.000;2023-03-24T12:04:44;5.03;;;3.10;;
75772;SDS011;64381;0.000;0.000;2023-03-24T12:10:00;4.70;;;2.90;;
75772;SDS011;64381;0.000;0.000;2023-03-24T12:18:25;4.60;;;3.25;;
75772;SDS011;64381;0.000;0.000;2023-03-24T12:21:07;5.93;;;3.50;;
75772;SDS011;64381;0.000;0.000;2023-03-24T12:23:59;5.43;;;3.60;;
75772;SDS011;64381;0.000;0.000;2023-03-24T12:26:32;5.30;;;3.50;;
75772;SDS011;64381;0.000;0.000;2023-03-24T12:35:03;5.40;;;3.38;;
75772;SDS011;64381;0.000;0.000;2023-03-24T12:41:28;4.82;;;3.10;;
75772;SDS011;64381;0.000;0.000;2023-03-24T12:53:24;6.10;;;3.20;;
75772;SDS011;64381;0.000;0.000;2023-03-24T13:04:10;5.50;;;3.28;;
75772;SDS011;64381;0.000;0.000;2023-03-24T13:06:44;5.00;;;3.40;;
75772;SDS011;64381;0.000;0.000;2023-03-24T13:09:21;4.50;;;3.10;;
75772;SDS011;64381;0.000;0.000;2023-03-24T13:12:00;5.05;;;3.22;;
75772;SDS011;64381;0.000;0.000;2023-03-24T13:14:29;5.15;;;3.30;;
75772;SDS011;64381;0.000;0.000;2023-03-24T13:16:59;5.20;;;3.25;;
75772;SDS011;64381;0.000;0.000;2023-03-24T13:19:29;5.50;;;3.17;;
75772;SDS011;64381;0.000;0.000;2023-03-24T13:21:55;4.95;;;3.20;;
75772;SDS011;64381;0.000;0.000;2023-03-24T13:24:21;4.97;;;3.20;;
75772;SDS011;64381;0.000;0.000;2023-03-24T13:26:52;4.82;;;3.05;;
75772;SDS011;64381;0.000;0.000;2023-03-24T13:29:41;5.20;;;3.30;;
75772;SDS011;64381;0.000;0.000;2023-03-24T13:34:47;5.00;;;2.97;;
75772;SDS011;64381;0.000;0.000;2023-03-24T13:37:44;5.13;;;3.10;;
75772;SDS011;64381;0.000;0.000;2023-03-24T13:42:53;4.60;;;2.85;;
75772;SDS011;64381;0.000;0.000;2023-03-24T13:45:24;5.53;;;3.38;;
75772;SDS011;64381;0.000;0.000;2023-03-24T13:48:04;4.30;;;2.90;;
75772;SDS011;64381;0.000;0.000;2023-03-24T13:50:53;5.40;;;3.40;;
75772;SDS011;64381;0.000;0.000;2023-03-24T13:53:28;4.70;;;2.90;;
75772;SDS011;64381;0.000;0.000;2023-03-24T13:55:55;5.43;;;3.03;;
75772;SDS011;64381;0.000;0.000;2023-03-24T13:58:22;4.67;;;3.00;;
75772;SDS011;64381;0.000;0.000;2023-03-24T14:03:34;4.68;;;3.20;;
75772;SDS011;64381;0.000;0.000;2023-03-24T14:06:03;4.22;;;2.80;;
75772;SDS011;64381;0.000;0.000;2023-03-24T14:14:06;5.15;;;3.30;;
75772;SDS011;64381;0.000;0.000;2023-03-24T14:19:18;5.53;;;3.28;;
75772;SDS011;64381;0.000;0.000;2023-03-24T14:21:52;4.93;;;3.07;;
75772;SDS011;64381;0.000;0.000;2023-03-24T14:24:32;5.07;;;3.10;;
75772;SDS011;64381;0.000;0.000;2023-03-24T14:26:58;4.78;;;2.80;;
75772;SDS011;64381;0.000;0.000;2023-03-24T14:29:40;5.10;;;3.03;;
75772;SDS011;64381;0.000;0.000;2023-03-24T14:32:13;5.70;;;3.00;;
75772;SDS011;64381;0.000;0.000;2023-03-24T14:34:48;5.10;;;3.05;;
75772;SDS011;64381;0.000;0.000;2023-03-24T14:37:15;4.97;;;3.10;;
75772;SDS011;64381;0.000;0.000;2023-03-24T14:39:46;5.20;;;3.10;;
75772;SDS011;64381;0.000;0.000;2023-03-24T14:48:00;4.30;;;2.80;;
75772;SDS011;64381;0.000;0.000;2023-03-24T14:50:27;5.25;;;2.97;;
75772;SDS011;64381;0.000;0.000;2023-03-24T14:53:00;4.83;;;3.20;;
75772;SDS011;64381;0.000;0.000;2023-03-24T14:55:26;4.80;;;2.80;;
75772;SDS011;64381;0.000;0.000;2023-03-24T14:58:03;5.07;;;3.00;;
75772;SDS011;64381;0.000;0.000;2023-03-24T15:00:43;4.70;;;2.90;;
75772;SDS011;64381;0.000;0.000;2023-03-24T15:06:20;4.65;;;3.10;;
75772;SDS011;64381;0.000;0.000;2023-03-24T15:08:50;5.00;;;3.30;;
75772;SDS011;64381;0.000;0.000;2023-03-24T15:11:24;4.35;;;2.78;;
75772;SDS011;64381;0.000;0.000;2023-03-24T15:13:54;5.57;;;3.10;;
75772;SDS011;64381;0.000;0.000;2023-03-24T15:16:21;4.20;;;2.70;;
75772;SDS011;64381;0.000;0.000;2023-03-24T15:18:48;4.72;;;2.92;;
75772;SDS011;64381;0.000;0.000;2023-03-24T15:21:28;4.85;;;2.92;;
75772;SDS011;64381;0.000;0.000;2023-03-24T15:23:57;4.32;;;2.60;;
75772;SDS011;64381;0.000;0.000;2023-03-24T15:26:23;4.87;;;2.90;;
75772;SDS011;64381;0.000;0.000;2023-03-24T15:28:53;4.60;;;2.53;;
75772;SDS011;64381;0.000;0.000;2023-03-24T15:31:20;5.43;;;3.03;;
75772;SDS011;64381;0.000;0.000;2023-03-24T15:33:45;5.53;;;2.90;;
75772;SDS011;64381;0.000;0.000;2023-03-24T15:36:15;4.57;;;3.00;;
75772;SDS011;64381;0.000;0.000;2023-03-24T15:38:44;5.00;;;2.90;;
75772;SDS011;64381;0.000;0.000;2023-03-24T15:41:12;4.75;;;2.90;;
75772;SDS011;64381;0.000;0.000;2023-03-24T15:43:43;5.50;;;3.00;;
75772;SDS011;64381;0.000;0.000;2023-03-24T15:46:16;4.53;;;2.80;;
75772;SDS011;64381;0.000;0.000;2023-03-24T15:48:44;4.18;;;2.70;;
75772;SDS011;64381;0.000;0.000;2023-03-24T15:51:10;4.50;;;2.80;;
75772;SDS011;64381;0.000;0.000;2023-03-24T15:53:41;4.63;;;2.60;;
75772;SDS011;64381;0.000;0.000;2023-03-24T15:58:44;4.68;;;2.80;;
75772;SDS011;64381;0.000;0.000;2023-03-24T16:01:18;4.53;;;2.63;;
75772;SDS011;64381;0.000;0.000;2023-03-24T16:03:48;4.70;;;2.90;;
75772;SDS011;64381;0.000;0.000;2023-03-24T16:06:14;4.10;;;2.50;;
75772;SDS011;64381;0.000;0.000;2023-03-24T16:08:45;4.03;;;2.50;;
75772;SDS011;64381;0.000;0.000;2023-03-24T16:11:11;4.50;;;2.47;;
75772;SDS011;64381;0.000;0.000;2023-03-24T16:13:38;4.32;;;2.50;;
75772;SDS011;64381;0.000;0.000;2023-03-24T16:16:06;4.30;;;2.63;;
75772;SDS011;64381;0.000;0.000;2023-03-24T16:18:46;4.20;;;2.55;;
75772;SDS011;64381;0.000;0.000;2023-03-24T16:21:17;4.28;;;2.70;;
75772;SDS011;64381;0.000;0.000;2023-03-24T16:23:47;4.17;;;2.70;;
75772;SDS011;64381;0.000;0.000;2023-03-24T16:26:14;3.97;;;2.45;;
75772;SDS011;64381;0.000;0.000;2023-03-24T16:28:49;5.03;;;3.05;;
75772;SDS011;64381;0.000;0.000;2023-03-24T16:31:18;4.40;;;2.65;;
75772;SDS011;64381;0.000;0.000;2023-03-24T16:33:46;4.18;;;2.53;;
75772;SDS011;64381;0.000;0.000;2023-03-24T16:36:12;4.63;;;2.73;;
75772;SDS011;64381;0.000;0.000;2023-03-24T16:38:37;4.20;;;2.60;;
75772;SDS011;64381;0.000;0.000;2023-03-24T16:41:03;5.10;;;3.15;;
75772;SDS011;64381;0.000;0.000;2023-03-24T16:43:28;4.13;;;2.33;;
75772;SDS011;64381;0.000;0.000;2023-03-24T16:45:53;4.33;;;2.63;;
75772;SDS011;64381;0.000;0.000;2023-03-24T16:48:19;4.37;;;2.70;;
75772;SDS011;64381;0.000;0.000;2023-03-24T16:50:45;3.97;;;2.43;;
75772;SDS011;64381;0.000;0.000;2023-03-24T16:53:13;4.30;;;2.65;;
75772;SDS011;64381;0.000;0.000;2023-03-24T16:55:39;4.53;;;2.60;;
75772;SDS011;64381;0.000;0.000;2023-03-24T16:58:04;4.20;;;2.53;;
75772;SDS011;64381;0.000;0.000;2023-03-24T17:00:30;4.63;;;2.43;;
75772;SDS011;64381;0.000;0.000;2023-03-24T17:02:56;4.40;;;2.60;;
75772;SDS011;64381;0.000;0.000;2023-03-24T17:05:23;4.23;;;2.33;;
75772;SDS011;64381;0.000;0.000;2023-03-24T17:07:53;4.45;;;2.78;;
75772;SDS011;64381;0.000;0.000;2023-03-24T17:10:19;4.45;;;2.53;;
75772;SDS011;64381;0.000;0.000;2023-03-24T17:12:45;4.13;;;2.47;;
75772;SDS011;64381;0.000;0.000;2023-03-24T17:15:13;4.10;;;2.50;;
75772;SDS011;64381;0.000;0.000;2023-03-24T17:17:41;4.38;;;2.47;;
75772;SDS011;64381;0.000;0.000;2023-03-24T17:20:07;4.37;;;2.73;;
75772;SDS011;64381;0.000;0.000;2023-03-24T17:22:33;4.53;;;2.63;;
75772;SDS011;64381;0.000;0.000;2023-03-24T17:24:58;4.33;;;2.80;;
75772;SDS011;64381;0.000;0.000;2023-03-24T17:27:23;4.50;;;2.43;;
75772;SDS011;64381;0.000;0.000;2023-03-24T17:29:48;4.10;;;2.10;;